createdAt,value
2022-11-07T00:02:14.552Z,94.33
2022-11-07T00:04:43.341Z,94.38
2022-11-07T00:07:11.941Z,94.79
2022-11-07T00:09:40.362Z,95.01
2022-11-07T00:12:09.007Z,95.27
2022-11-07T00:14:37.363Z,95.23
2022-11-07T00:17:05.825Z,95.37
2022-11-07T00:19:34.174Z,95.36
2022-11-07T00:22:02.545Z,94.68
2022-11-07T00:24:30.969Z,93.49
2022-11-07T00:26:59.344Z,93.58
2022-11-07T00:29:27.739Z,93.18
2022-11-07T00:31:56.134Z,93.19
2022-11-07T00:34:24.492Z,92.76
2022-11-07T00:36:52.873Z,92.17
2022-11-07T00:39:21.224Z,91.48
2022-11-07T00:41:50.370Z,90.66
2022-11-07T00:44:18.706Z,90.02
2022-11-07T00:46:47.111Z,90.20
2022-11-07T00:49:15.507Z,88.47
2022-11-07T00:51:43.892Z,88.67
2022-11-07T00:54:12.283Z,89.07
2022-11-07T00:56:40.793Z,89.38
2022-11-07T00:59:09.269Z,89.64
2022-11-07T01:01:37.913Z,89.01
2022-11-07T01:04:25.102Z,88.21
2022-11-07T01:06:53.457Z,88.07
2022-11-07T01:09:23.399Z,86.86
2022-11-07T01:11:51.915Z,85.55
2022-11-07T01:14:22.498Z,85.50
2022-11-07T01:16:52.007Z,84.52
2022-11-07T01:19:21.327Z,82.50
2022-11-07T01:21:49.745Z,82.76
2022-11-07T01:24:18.825Z,81.68
2022-11-07T01:26:50.396Z,81.78
2022-11-07T01:29:20.087Z,81.01
2022-11-07T01:31:48.813Z,80.59
2022-11-07T01:34:18.704Z,80.51
2022-11-07T01:36:47.378Z,81.29
2022-11-07T01:39:18.581Z,80.91
2022-11-07T01:41:46.965Z,80.62
2022-11-07T01:44:35.339Z,80.69
2022-11-07T01:47:03.975Z,80.61
2022-11-07T01:49:36.063Z,80.47
2022-11-07T01:52:40.971Z,81.40
2022-11-07T01:55:16.795Z,79.50
2022-11-07T01:57:58.957Z,79.60
2022-11-07T02:00:28.327Z,79.76
2022-11-07T02:03:02.668Z,79.75
2022-11-07T02:05:54.674Z,79.16
2022-11-07T02:08:25.387Z,78.36
2022-11-07T02:10:55.152Z,79.46
2022-11-07T02:13:28.438Z,78.75
2022-11-07T02:15:57.295Z,79.36
2022-11-07T02:18:28.999Z,78.74
2022-11-07T02:21:03.228Z,77.68
2022-11-07T02:24:11.722Z,77.68
2022-11-07T02:26:41.657Z,77.74
2022-11-07T02:29:11.819Z,77.39
2022-11-07T02:31:40.191Z,76.69
2022-11-07T02:34:08.505Z,75.24
2022-11-07T02:36:37.030Z,75.92
2022-11-07T02:39:05.607Z,76.89
2022-11-07T02:41:36.088Z,75.99
2022-11-07T02:44:09.938Z,75.20
2022-11-07T02:46:39.111Z,75.65
2022-11-07T02:49:07.959Z,73.78
2022-11-07T02:51:36.291Z,73.65
2022-11-07T02:54:05.217Z,74.60
2022-11-07T02:56:33.566Z,73.56
2022-11-07T02:59:02.090Z,72.75
2022-11-07T03:01:30.647Z,72.66
2022-11-07T03:03:59.211Z,71.47
2022-11-07T03:06:27.990Z,70.14
2022-11-07T03:08:56.354Z,70.49
2022-11-07T03:11:24.811Z,69.98
2022-11-07T03:13:53.234Z,71.97
2022-11-07T03:16:21.785Z,70.32
2022-11-07T03:18:50.196Z,71.25
2022-11-07T03:21:18.607Z,70.19
2022-11-07T03:23:46.930Z,69.23
2022-11-07T03:26:15.304Z,70.21
2022-11-07T03:28:43.620Z,69.38
2022-11-07T03:31:12.037Z,67.26
2022-11-07T03:33:40.359Z,66.98
2022-11-07T03:36:08.985Z,69.32
2022-11-07T03:38:37.349Z,67.21
2022-11-07T03:41:05.791Z,67.62
2022-11-07T03:43:34.303Z,67.55
2022-11-07T03:46:02.668Z,67.08
2022-11-07T03:48:30.970Z,66.48
2022-11-07T03:50:59.275Z,66.92
2022-11-07T03:53:27.989Z,68.13
2022-11-07T03:55:57.630Z,66.49
2022-11-07T03:58:27.224Z,67.23
2022-11-07T04:00:55.570Z,66.31
2022-11-07T04:03:23.874Z,65.34
2022-11-07T04:05:52.199Z,67.22
2022-11-07T04:08:21.002Z,66.83
2022-11-07T04:10:49.347Z,66.72
2022-11-07T04:13:35.911Z,65.23
2022-11-07T04:16:30.262Z,64.17
2022-11-07T04:18:59.832Z,66.24
2022-11-07T04:21:28.148Z,64.89
2022-11-07T04:23:56.935Z,63.51
2022-11-07T04:26:43.442Z,64.50
2022-11-07T04:29:11.832Z,63.99
2022-11-07T04:31:40.191Z,64.13
2022-11-07T04:34:08.529Z,61.49
2022-11-07T04:36:37.222Z,60.33
2022-11-07T04:39:05.632Z,60.66
2022-11-07T04:41:34.023Z,62.15
2022-11-07T04:44:02.391Z,59.94
2022-11-07T04:46:30.711Z,59.78
2022-11-07T04:48:59.060Z,60.30
2022-11-07T04:51:27.770Z,59.32
2022-11-07T04:53:56.144Z,60.21
2022-11-07T04:56:24.544Z,60.90
2022-11-07T04:58:52.837Z,58.49
2022-11-07T05:01:21.170Z,61.05
2022-11-07T05:03:49.530Z,59.25
2022-11-07T05:06:17.912Z,60.17
2022-11-07T05:08:46.267Z,59.52
2022-11-07T05:11:14.560Z,58.95
2022-11-07T05:13:43.072Z,59.43
2022-11-07T05:16:18.075Z,57.03
2022-11-07T05:18:46.717Z,56.29
2022-11-07T05:21:15.061Z,59.33
2022-11-07T05:23:43.385Z,56.24
2022-11-07T05:26:11.856Z,55.95
2022-11-07T05:28:40.280Z,57.94
2022-11-07T05:31:09.906Z,57.55
2022-11-07T05:33:38.281Z,56.44
2022-11-07T05:36:15.455Z,56.71
2022-11-07T05:38:45.963Z,58.24
2022-11-07T05:41:16.239Z,58.96
2022-11-07T05:43:45.202Z,56.34
2022-11-07T05:46:14.163Z,58.39
2022-11-07T05:48:42.658Z,57.50
2022-11-07T05:51:11.073Z,59.35
2022-11-07T05:53:39.441Z,59.66
2022-11-07T05:56:08.058Z,58.94
2022-11-07T05:58:36.723Z,60.17
2022-11-07T06:01:07.408Z,59.71
2022-11-07T06:03:35.708Z,59.44
2022-11-07T06:06:04.072Z,52.69
2022-11-07T06:08:36.052Z,57.30
2022-11-07T06:11:07.677Z,58.79
2022-11-07T06:13:36.071Z,56.73
2022-11-07T06:16:04.585Z,56.23
2022-11-07T06:18:35.554Z,57.98
2022-11-07T06:21:08.122Z,56.33
2022-11-07T06:23:36.445Z,56.73
2022-11-07T06:26:04.921Z,54.25
2022-11-07T06:28:33.256Z,53.76
2022-11-07T06:31:03.506Z,55.26
2022-11-07T06:33:32.070Z,58.28
2022-11-07T06:36:14.823Z,55.13
2022-11-07T06:38:43.208Z,55.46
2022-11-07T06:41:14.284Z,58.25
2022-11-07T06:43:42.927Z,56.60
2022-11-07T06:46:15.540Z,56.44
2022-11-07T06:48:43.858Z,54.50
2022-11-07T06:51:13.008Z,52.92
2022-11-07T06:53:41.861Z,54.39
2022-11-07T06:56:14.732Z,55.28
2022-11-07T06:58:43.305Z,53.65
2022-11-07T07:01:16.002Z,54.93
2022-11-07T07:03:45.131Z,53.59
2022-11-07T07:06:15.833Z,56.61
2022-11-07T07:08:46.068Z,54.28
2022-11-07T07:11:16.166Z,56.68
2022-11-07T07:13:44.601Z,56.86
2022-11-07T07:16:13.967Z,57.33
2022-11-07T07:18:42.262Z,56.72
2022-11-07T07:21:12.999Z,52.48
2022-11-07T07:23:41.803Z,53.43
2022-11-07T07:26:14.843Z,56.51
2022-11-07T07:28:44.317Z,54.03
2022-11-07T07:31:26.012Z,54.08
2022-11-07T07:33:54.365Z,54.22
2022-11-07T07:36:22.730Z,53.76
2022-11-07T07:38:52.382Z,55.42
2022-11-07T07:41:21.915Z,54.51
2022-11-07T07:43:50.262Z,54.50
2022-11-07T07:46:23.321Z,54.68
2022-11-07T07:48:51.705Z,54.48
2022-11-07T07:51:20.095Z,53.85
2022-11-07T07:53:48.415Z,54.35
2022-11-07T07:56:18.546Z,54.21
2022-11-07T07:58:47.717Z,54.34
2022-11-07T08:01:16.163Z,53.20
2022-11-07T08:04:00.821Z,54.93
2022-11-07T08:06:30.796Z,54.92
2022-11-07T08:08:59.241Z,55.81
2022-11-07T08:11:27.731Z,56.72
2022-11-07T08:14:00.847Z,53.39
2022-11-07T08:16:30.223Z,53.83
2022-11-07T08:18:58.549Z,55.22
2022-11-07T08:21:26.844Z,55.11
2022-11-07T08:23:58.649Z,57.08
2022-11-07T08:26:27.223Z,56.66
2022-11-07T08:28:56.075Z,55.30
2022-11-07T08:31:24.380Z,56.22
2022-11-07T08:33:52.823Z,53.52
2022-11-07T08:36:21.519Z,55.71
2022-11-07T08:38:49.954Z,56.25
2022-11-07T08:41:21.913Z,54.02
2022-11-07T08:43:51.086Z,55.57
2022-11-07T08:46:19.449Z,54.59
2022-11-07T08:48:47.774Z,53.49
2022-11-07T08:51:16.100Z,55.45
2022-11-07T08:53:44.423Z,52.71
2022-11-07T08:56:13.086Z,56.19
2022-11-07T08:58:41.436Z,53.79
2022-11-07T09:01:10.806Z,53.79
2022-11-07T09:03:52.882Z,53.43
2022-11-07T09:06:25.298Z,52.82
2022-11-07T09:08:54.017Z,53.00
2022-11-07T09:11:22.971Z,52.51
2022-11-07T09:13:51.274Z,56.11
2022-11-07T09:16:20.358Z,55.11
2022-11-07T09:18:50.554Z,55.46
2022-11-07T09:21:22.434Z,55.97
2022-11-07T09:23:52.389Z,55.76
2022-11-07T09:26:20.890Z,55.62
2022-11-07T09:28:52.882Z,55.55
2022-11-07T09:31:22.413Z,54.44
2022-11-07T09:33:50.796Z,55.12
2022-11-07T09:36:19.184Z,55.53
2022-11-07T09:38:47.487Z,57.53
2022-11-07T09:41:48.458Z,56.38
2022-11-07T09:44:49.882Z,55.79
2022-11-07T09:47:43.127Z,56.56
2022-11-07T09:50:29.551Z,55.84
2022-11-07T09:53:12.385Z,56.37
2022-11-07T09:56:05.050Z,58.61
2022-11-07T09:58:38.450Z,60.00
2022-11-07T10:01:12.056Z,60.48
2022-11-07T10:03:49.140Z,59.74
2022-11-07T10:06:44.200Z,61.29
2022-11-07T10:09:38.252Z,62.18
2022-11-07T10:12:24.815Z,63.53
2022-11-07T10:15:23.335Z,63.48
2022-11-07T10:18:25.022Z,63.28
2022-11-07T10:21:23.024Z,63.38
2022-11-07T10:24:00.260Z,63.73
2022-11-07T10:26:30.508Z,65.04
2022-11-07T10:29:15.476Z,65.49
2022-11-07T10:31:55.595Z,65.77
2022-11-07T10:34:37.192Z,65.73
2022-11-07T10:37:06.166Z,67.26
2022-11-07T10:39:35.453Z,68.41
2022-11-07T10:42:19.635Z,68.76
2022-11-07T10:44:48.998Z,68.32
2022-11-07T10:47:23.049Z,67.93
2022-11-07T10:50:03.015Z,69.17
2022-11-07T10:52:31.727Z,70.41
2022-11-07T10:55:08.574Z,70.88
2022-11-07T10:57:37.358Z,70.76
2022-11-07T11:00:09.021Z,70.57
2022-11-07T11:02:51.049Z,71.37
2022-11-07T11:05:25.930Z,71.83
2022-11-07T11:07:57.267Z,72.43
2022-11-07T11:10:32.821Z,73.32
2022-11-07T11:13:01.134Z,74.03
2022-11-07T11:15:34.499Z,74.45
2022-11-07T11:18:06.565Z,74.95
2022-11-07T11:20:58.101Z,74.53
2022-11-07T11:23:30.280Z,74.28
2022-11-07T11:26:23.274Z,75.06
2022-11-07T11:28:57.017Z,75.65
2022-11-07T11:31:34.453Z,75.41
2022-11-07T11:34:16.019Z,75.04
2022-11-07T11:37:03.017Z,75.01
2022-11-07T11:39:57.504Z,75.72
2022-11-07T11:43:06.528Z,75.43
2022-11-07T11:45:37.980Z,75.94
2022-11-07T11:48:27.505Z,75.99
2022-11-07T11:51:07.701Z,77.02
2022-11-07T11:53:36.105Z,77.83
2022-11-07T11:56:28.739Z,78.26
2022-11-07T11:59:06.796Z,78.90
2022-11-07T12:01:46.479Z,78.49
2022-11-07T12:04:36.386Z,78.16
2022-11-07T12:07:18.255Z,78.54
2022-11-07T12:10:04.749Z,79.57
2022-11-07T12:12:36.102Z,79.69
2022-11-07T12:15:29.235Z,79.26
2022-11-07T12:18:28.442Z,80.22
2022-11-07T12:23:48.241Z,81.03
2022-11-07T12:26:44.259Z,81.79
2022-11-07T12:29:28.974Z,82.46
2022-11-07T12:32:23.464Z,82.53
2022-11-07T12:35:09.918Z,82.92
2022-11-07T12:38:09.078Z,84.22
2022-11-07T12:40:43.088Z,83.98
2022-11-07T12:43:23.237Z,83.99
2022-11-07T12:46:07.453Z,84.22
2022-11-07T12:48:56.990Z,84.12
2022-11-07T12:51:47.459Z,84.25
2022-11-07T12:54:33.603Z,84.30
2022-11-07T12:57:07.984Z,84.03
2022-11-07T12:59:41.506Z,84.23
2022-11-07T13:02:30.805Z,84.61
2022-11-07T13:05:40.624Z,84.74
2022-11-07T13:08:37.721Z,84.37
2022-11-07T13:11:28.796Z,83.89
2022-11-07T13:14:23.797Z,83.08
2022-11-07T13:17:09.250Z,83.77
2022-11-07T13:19:43.905Z,84.54
2022-11-07T13:22:17.953Z,83.85
2022-11-07T13:25:16.318Z,84.21
2022-11-07T13:27:57.328Z,84.04
2022-11-07T13:30:31.607Z,84.39
2022-11-07T13:33:01.497Z,84.52
2022-11-07T13:35:38.236Z,84.57
2022-11-07T13:38:22.217Z,84.46
2022-11-07T13:41:04.725Z,84.74
2022-11-07T13:43:57.476Z,85.19
2022-11-07T13:46:48.430Z,85.37
2022-11-07T13:49:19.813Z,85.43
2022-11-07T13:51:51.385Z,86.16
2022-11-07T13:54:32.340Z,85.91
2022-11-07T13:57:36.194Z,86.24
2022-11-07T14:00:14.804Z,85.91
2022-11-07T14:02:57.642Z,85.82
2022-11-07T14:05:39.379Z,86.38
2022-11-07T14:08:23.833Z,86.78
2022-11-07T14:10:54.063Z,87.00
2022-11-07T14:13:27.998Z,87.51
2022-11-07T14:16:06.403Z,88.15
2022-11-07T14:18:48.227Z,88.27
2022-11-07T14:21:40.829Z,87.56
2022-11-07T14:24:21.773Z,88.22
2022-11-07T14:27:17.185Z,89.04
2022-11-07T14:30:00.931Z,88.34
2022-11-07T14:32:31.993Z,88.46
2022-11-07T14:35:01.610Z,87.91
2022-11-07T14:37:35.168Z,86.84
2022-11-07T14:40:03.712Z,87.79
2022-11-07T14:42:32.106Z,88.22
2022-11-07T14:45:01.061Z,88.23
2022-11-07T14:47:38.410Z,88.67
2022-11-07T14:50:07.601Z,88.82
2022-11-07T14:52:42.633Z,88.50
2022-11-07T14:55:44.920Z,88.83
2022-11-07T14:58:14.631Z,89.17
2022-11-07T15:00:53.552Z,88.73
2022-11-07T15:03:24.351Z,88.99
2022-11-07T15:05:52.721Z,88.80
2022-11-07T15:08:31.559Z,88.99
2022-11-07T15:11:37.242Z,89.12
2022-11-07T15:14:21.488Z,88.86
2022-11-07T15:16:51.763Z,88.76
2022-11-07T15:19:23.472Z,88.62
2022-11-07T15:22:04.273Z,88.62
2022-11-07T15:24:45.090Z,89.03
2022-11-07T15:27:21.438Z,88.71
2022-11-07T15:29:58.330Z,89.23
2022-11-07T15:32:30.594Z,89.81
2022-11-07T15:35:12.263Z,89.51
2022-11-07T15:38:01.283Z,89.48
2022-11-07T15:40:31.143Z,89.81
2022-11-07T15:42:59.889Z,89.94
2022-11-07T15:45:28.361Z,88.24
2022-11-07T15:47:56.669Z,87.95
2022-11-07T15:50:26.378Z,87.96
2022-11-07T15:52:55.546Z,87.87
2022-11-07T15:55:25.167Z,88.74
2022-11-07T15:57:55.550Z,89.01
2022-11-07T16:00:26.555Z,88.85
2022-11-07T16:02:55.116Z,89.02
2022-11-07T16:05:23.487Z,89.15
2022-11-07T16:07:51.893Z,89.02
2022-11-07T16:10:26.097Z,89.12
2022-11-07T16:12:55.242Z,89.66
2022-11-07T16:15:26.522Z,89.45
2022-11-07T16:17:54.845Z,89.73
2022-11-07T16:20:25.100Z,90.57
2022-11-07T16:22:53.785Z,90.46
2022-11-07T16:25:26.653Z,90.72
2022-11-07T16:27:57.576Z,91.07
2022-11-07T16:30:26.419Z,90.49
2022-11-07T16:32:54.917Z,90.64
2022-11-07T16:35:23.730Z,90.31
2022-11-07T16:37:52.141Z,90.29
2022-11-07T16:40:21.336Z,89.91
2022-11-07T16:42:49.650Z,89.42
2022-11-07T16:45:21.401Z,89.55
2022-11-07T16:47:49.877Z,89.49
2022-11-07T16:50:18.832Z,88.48
2022-11-07T16:52:47.173Z,89.38
2022-11-07T16:55:17.106Z,89.97
2022-11-07T16:57:45.840Z,90.62
2022-11-07T17:00:23.003Z,91.06
2022-11-07T17:02:52.007Z,91.49
2022-11-07T17:05:20.531Z,91.67
2022-11-07T17:07:51.122Z,91.22
2022-11-07T17:10:22.523Z,91.85
2022-11-07T17:12:51.199Z,91.74
2022-11-07T17:15:19.481Z,91.37
2022-11-07T17:17:48.105Z,91.12
2022-11-07T17:20:52.341Z,91.19
2022-11-07T17:23:13.657Z,91.08
2022-11-07T17:25:47.510Z,90.59
2022-11-07T17:28:17.295Z,90.89
2022-11-07T17:30:45.867Z,91.08
2022-11-07T17:33:14.510Z,91.09
2022-11-07T17:35:42.984Z,91.01
2022-11-07T17:38:20.362Z,91.03
2022-11-07T17:40:48.857Z,90.76
2022-11-07T17:43:17.173Z,91.23
2022-11-07T17:45:46.208Z,90.54
2022-11-07T17:48:14.948Z,91.04
2022-11-07T17:50:43.742Z,91.52
2022-11-07T17:53:12.197Z,91.33
2022-11-07T17:55:40.671Z,91.36
2022-11-07T17:58:10.915Z,91.09
2022-11-07T18:00:39.258Z,90.90
2022-11-07T18:03:07.707Z,90.46
2022-11-07T18:05:36.145Z,90.68
2022-11-07T18:08:04.580Z,90.16
2022-11-07T18:10:33.795Z,90.10
2022-11-07T18:13:02.357Z,89.78
2022-11-07T18:15:30.734Z,89.19
2022-11-07T18:17:59.078Z,90.19
2022-11-07T18:20:28.668Z,90.22
2022-11-07T18:22:56.973Z,90.47
2022-11-07T18:25:25.325Z,91.00
2022-11-07T18:27:53.632Z,90.27
2022-11-07T18:30:21.956Z,90.44
2022-11-07T18:32:50.260Z,90.08
2022-11-07T18:35:18.623Z,89.66
2022-11-07T18:37:46.948Z,90.03
2022-11-07T18:40:15.407Z,90.03
2022-11-07T18:42:47.262Z,90.13
2022-11-07T18:45:15.687Z,90.14
2022-11-07T18:47:44.095Z,90.59
2022-11-07T18:50:12.492Z,90.87
2022-11-07T18:52:40.890Z,90.44
2022-11-07T18:55:10.653Z,90.64
2022-11-07T18:57:39.145Z,90.79
2022-11-07T19:00:12.275Z,90.36
2022-11-07T19:02:41.892Z,90.20
2022-11-07T19:05:10.346Z,90.36
2022-11-07T19:07:40.748Z,89.83
2022-11-07T19:10:09.561Z,90.08
2022-11-07T19:12:37.916Z,89.72
2022-11-07T19:15:08.129Z,89.67
2022-11-07T19:17:36.903Z,89.54
2022-11-07T19:20:07.765Z,88.47
2022-11-07T19:22:36.162Z,88.61
2022-11-07T19:25:04.506Z,88.12
2022-11-07T19:27:33.938Z,85.71
2022-11-07T19:30:02.369Z,86.25
2022-11-07T19:32:30.715Z,85.83
2022-11-07T19:34:59.099Z,85.49
2022-11-07T19:37:27.433Z,86.45
2022-11-07T19:39:55.911Z,86.65
2022-11-07T19:42:29.078Z,87.17
2022-11-07T19:44:57.553Z,87.51
2022-11-07T19:47:25.956Z,85.35
2022-11-07T19:49:54.320Z,86.58
2022-11-07T19:52:22.726Z,86.86
2022-11-07T19:54:52.197Z,85.92
2022-11-07T19:57:20.513Z,86.85
2022-11-07T19:59:48.867Z,87.46
2022-11-07T20:02:35.373Z,88.18
2022-11-07T20:05:06.811Z,87.87
2022-11-07T20:07:35.171Z,88.19
2022-11-07T20:10:03.565Z,88.05
2022-11-07T20:12:31.846Z,88.44
2022-11-07T20:15:00.903Z,88.31
2022-11-07T20:17:29.217Z,88.51
2022-11-07T20:20:02.634Z,88.66
2022-11-07T20:22:32.928Z,88.69
2022-11-07T20:25:01.351Z,88.77
2022-11-07T20:27:29.697Z,88.28
2022-11-07T20:29:59.338Z,88.17
2022-11-07T20:32:28.593Z,89.32
2022-11-07T20:34:57.006Z,88.88
2022-11-07T20:37:25.382Z,88.82
2022-11-07T20:39:53.777Z,88.58
2022-11-07T20:42:22.179Z,88.59
2022-11-07T20:44:52.001Z,88.99
2022-11-07T20:47:20.400Z,88.99
2022-11-07T20:49:48.772Z,88.71
2022-11-07T20:52:17.135Z,89.93
2022-11-07T20:54:45.447Z,89.88
2022-11-07T20:57:13.802Z,89.05
2022-11-07T20:59:43.055Z,90.38
2022-11-07T21:02:13.416Z,90.54
2022-11-07T21:05:03.247Z,90.37
2022-11-07T21:07:30.378Z,90.38
2022-11-07T21:09:58.690Z,90.11
2022-11-07T21:12:27.054Z,90.59
2022-11-07T21:14:55.598Z,90.43
2022-11-07T21:17:23.925Z,90.62
2022-11-07T21:19:52.238Z,91.36
2022-11-07T21:22:23.149Z,91.09
2022-11-07T21:24:53.763Z,91.93
2022-11-07T21:27:22.269Z,91.62
2022-11-07T21:29:50.674Z,91.28
2022-11-07T21:32:18.973Z,91.28
2022-11-07T21:34:48.218Z,92.15
2022-11-07T21:37:16.564Z,91.73
2022-11-07T21:39:44.876Z,91.63
2022-11-07T21:42:13.731Z,91.70
2022-11-07T21:44:42.033Z,91.27
2022-11-07T21:47:10.320Z,91.53
2022-11-07T21:49:38.752Z,91.52
2022-11-07T21:52:07.239Z,91.25
2022-11-07T21:54:36.230Z,91.51
2022-11-07T21:57:05.364Z,91.41
2022-11-07T21:59:34.370Z,91.80
2022-11-07T22:02:03.388Z,91.67
2022-11-07T22:04:32.393Z,92.18
2022-11-07T22:07:01.289Z,91.74
2022-11-07T22:09:30.288Z,91.67
2022-11-07T22:11:59.242Z,91.59
2022-11-07T22:14:28.123Z,91.76
2022-11-07T22:16:58.189Z,91.91
2022-11-07T22:19:27.728Z,91.72
2022-11-07T22:21:56.058Z,92.05
2022-11-07T22:24:26.972Z,92.00
2022-11-07T22:26:56.817Z,92.18
2022-11-07T22:29:25.160Z,92.07
2022-11-07T22:31:53.516Z,92.15
2022-11-07T22:34:21.887Z,92.41
2022-11-07T22:36:50.291Z,93.22
2022-11-07T22:39:18.769Z,93.35
2022-11-07T22:41:47.397Z,93.14
2022-11-07T22:44:15.833Z,93.05
2022-11-07T22:46:44.199Z,92.91
2022-11-07T22:49:12.574Z,92.68
2022-11-07T22:51:40.975Z,93.03
2022-11-07T22:54:13.936Z,93.39
2022-11-07T22:56:42.410Z,93.39
2022-11-07T22:59:12.716Z,92.76
2022-11-07T23:01:43.715Z,92.96
2022-11-07T23:04:16.117Z,92.91
2022-11-07T23:06:44.442Z,92.79
2022-11-07T23:09:17.744Z,92.68
2022-11-07T23:11:47.911Z,92.74
2022-11-07T23:14:20.054Z,92.64
2022-11-07T23:16:53.644Z,92.60
2022-11-07T23:19:25.242Z,92.74
2022-11-07T23:21:55.773Z,92.72
2022-11-07T23:24:24.473Z,92.89
2022-11-07T23:26:53.012Z,92.92
2022-11-07T23:29:24.849Z,92.90
2022-11-07T23:31:53.690Z,92.74
2022-11-07T23:34:26.831Z,93.72
2022-11-07T23:36:55.265Z,94.05
2022-11-07T23:39:24.712Z,93.85
2022-11-07T23:41:53.814Z,94.06
2022-11-07T23:44:22.589Z,94.14
2022-11-07T23:47:09.670Z,94.48
2022-11-07T23:49:56.165Z,94.73
2022-11-07T23:52:24.741Z,94.57
2022-11-07T23:55:11.294Z,94.83
2022-11-07T23:57:57.719Z,94.73
